createdAt,value
2022-11-16T00:01:30.541Z,5.60
2022-11-16T00:03:59.769Z,7.45
2022-11-16T00:06:27.888Z,7.80
2022-11-16T00:09:19.651Z,8.23
2022-11-16T00:11:52.721Z,6.18
2022-11-16T00:14:21.246Z,5.40
2022-11-16T00:16:48.259Z,7.80
2022-11-16T00:19:15.187Z,8.30
2022-11-16T00:21:42.385Z,5.70
2022-11-16T00:24:16.035Z,6.68
2022-11-16T00:26:43.257Z,5.82
2022-11-16T00:29:15.745Z,4.90
2022-11-16T00:31:44.552Z,6.35
2022-11-16T00:34:11.419Z,6.53
2022-11-16T00:36:38.281Z,9.05
2022-11-16T00:39:05.391Z,9.65
2022-11-16T00:41:32.169Z,6.82
2022-11-16T00:43:58.979Z,6.70
2022-11-16T00:46:25.772Z,7.68
2022-11-16T00:48:52.586Z,7.97
2022-11-16T00:51:25.442Z,6.50
2022-11-16T00:53:52.215Z,7.85
2022-11-16T00:56:19.015Z,6.13
2022-11-16T00:58:45.825Z,6.35
2022-11-16T01:01:13.049Z,8.40
2022-11-16T01:03:40.104Z,6.95
2022-11-16T01:06:10.717Z,6.03
2022-11-16T01:08:39.436Z,7.30
2022-11-16T01:11:26.815Z,7.28
2022-11-16T01:13:54.669Z,7.30
2022-11-16T01:16:23.643Z,7.85
2022-11-16T01:18:53.616Z,8.43
2022-11-16T01:21:21.844Z,7.30
2022-11-16T01:23:48.810Z,6.75
2022-11-16T01:26:15.649Z,7.63
2022-11-16T01:28:42.420Z,7.72
2022-11-16T01:31:10.367Z,7.68
2022-11-16T01:33:38.005Z,8.68
2022-11-16T01:36:14.548Z,8.27
2022-11-16T01:38:46.318Z,9.18
2022-11-16T01:41:23.937Z,13.18
2022-11-16T01:43:59.874Z,7.93
2022-11-16T01:46:28.231Z,9.70
2022-11-16T01:49:04.527Z,7.82
2022-11-16T01:51:32.764Z,8.82
2022-11-16T01:54:01.845Z,10.85
2022-11-16T01:56:31.683Z,11.45
2022-11-16T01:58:58.653Z,10.38
2022-11-16T02:01:25.490Z,9.75
2022-11-16T02:03:52.313Z,9.02
2022-11-16T02:06:32.414Z,8.05
2022-11-16T02:09:59.381Z,9.85
2022-11-16T02:12:49.001Z,10.40
2022-11-16T02:15:30.201Z,9.48
2022-11-16T02:18:44.097Z,10.70
2022-11-16T02:21:36.293Z,9.52
2022-11-16T02:24:42.547Z,9.63
2022-11-16T02:28:11.432Z,9.35
2022-11-16T02:30:44.789Z,10.38
2022-11-16T02:33:21.192Z,9.93
2022-11-16T02:35:52.676Z,11.98
2022-11-16T02:38:31.993Z,11.23
2022-11-16T02:41:06.485Z,11.95
2022-11-16T02:43:42.856Z,11.93
2022-11-16T02:46:18.851Z,11.85
2022-11-16T02:48:50.527Z,15.00
2022-11-16T02:51:19.482Z,12.82
2022-11-16T02:54:12.738Z,14.13
2022-11-16T02:57:04.726Z,9.80
2022-11-16T02:59:49.013Z,14.93
2022-11-16T03:02:25.497Z,12.50
2022-11-16T03:05:31.821Z,11.98
2022-11-16T03:08:33.996Z,14.32
2022-11-16T03:11:25.377Z,14.95
2022-11-16T03:14:00.015Z,13.25
2022-11-16T03:16:32.502Z,15.82
2022-11-16T03:19:03.241Z,15.05
2022-11-16T03:21:50.588Z,15.00
2022-11-16T03:24:17.620Z,11.82
2022-11-16T03:27:18.314Z,14.23
2022-11-16T03:30:06.042Z,14.27
2022-11-16T03:32:55.081Z,13.73
2022-11-16T03:35:24.806Z,14.27
2022-11-16T03:37:55.478Z,13.95
2022-11-16T03:40:24.627Z,14.18
2022-11-16T03:42:52.167Z,16.45
2022-11-16T03:45:19.966Z,16.45
2022-11-16T03:47:46.862Z,15.43
2022-11-16T03:50:13.751Z,16.33
2022-11-16T03:52:41.289Z,13.73
2022-11-16T03:55:08.608Z,13.77
2022-11-16T03:57:35.359Z,16.50
2022-11-16T04:00:02.467Z,16.60
2022-11-16T04:02:29.256Z,19.08
2022-11-16T04:05:14.420Z,17.38
2022-11-16T04:07:59.729Z,17.40
2022-11-16T04:10:44.787Z,18.15
2022-11-16T04:13:32.277Z,15.27
2022-11-16T04:16:17.904Z,16.08
2022-11-16T04:19:03.075Z,19.67
2022-11-16T04:22:02.779Z,19.08
2022-11-16T04:24:35.949Z,15.45
2022-11-16T04:27:25.888Z,20.85
2022-11-16T04:29:54.220Z,22.13
2022-11-16T04:32:39.359Z,20.30
2022-11-16T04:35:24.565Z,19.55
2022-11-16T04:37:53.240Z,18.33
2022-11-16T04:40:26.352Z,19.83
2022-11-16T04:43:01.303Z,17.48
2022-11-16T04:45:47.025Z,16.38
2022-11-16T04:48:15.914Z,18.73
2022-11-16T04:50:43.657Z,17.73
2022-11-16T04:53:10.877Z,17.75
2022-11-16T04:55:37.824Z,18.58
2022-11-16T04:58:05.381Z,19.70
2022-11-16T05:00:32.733Z,17.80
2022-11-16T05:03:01.588Z,21.08
2022-11-16T05:05:28.792Z,16.48
2022-11-16T05:07:55.613Z,18.40
2022-11-16T05:10:22.500Z,21.08
2022-11-16T05:12:49.240Z,16.40
2022-11-16T05:15:17.607Z,16.80
2022-11-16T05:17:44.450Z,17.98
2022-11-16T05:20:30.214Z,19.83
2022-11-16T05:22:58.260Z,19.42
2022-11-16T05:25:25.487Z,18.35
2022-11-16T05:27:52.270Z,19.52
2022-11-16T05:30:19.124Z,16.00
2022-11-16T05:32:46.157Z,16.90
2022-11-16T05:35:12.914Z,22.83
2022-11-16T05:37:39.745Z,16.20
2022-11-16T05:40:07.469Z,19.38
2022-11-16T05:42:34.431Z,22.05
2022-11-16T05:45:01.268Z,20.95
2022-11-16T05:47:28.177Z,19.58
2022-11-16T05:49:54.938Z,20.33
2022-11-16T05:52:21.709Z,22.80
2022-11-16T05:54:48.477Z,22.52
2022-11-16T05:57:15.367Z,22.80
2022-11-16T05:59:42.529Z,23.23
2022-11-16T06:02:09.288Z,23.75
2022-11-16T06:04:36.044Z,19.85
2022-11-16T06:07:02.915Z,21.52
2022-11-16T06:09:29.772Z,21.63
2022-11-16T06:11:56.552Z,22.17
2022-11-16T06:14:23.515Z,22.75
2022-11-16T06:16:50.277Z,26.85
2022-11-16T06:19:17.037Z,22.35
2022-11-16T06:21:43.801Z,22.02
2022-11-16T06:24:10.611Z,21.95
2022-11-16T06:26:37.452Z,24.67
2022-11-16T06:29:04.797Z,21.85
2022-11-16T06:31:31.682Z,27.00
2022-11-16T06:33:58.515Z,23.20
2022-11-16T06:36:25.309Z,25.10
2022-11-16T06:38:52.139Z,21.23
2022-11-16T06:41:19.348Z,24.75
2022-11-16T06:43:46.294Z,23.83
2022-11-16T06:46:13.269Z,24.13
2022-11-16T06:48:40.080Z,24.92
2022-11-16T06:51:06.923Z,25.10
2022-11-16T06:53:34.185Z,25.83
2022-11-16T06:56:05.644Z,22.58
2022-11-16T06:58:33.380Z,24.08
2022-11-16T07:01:11.845Z,26.23
2022-11-16T07:03:39.104Z,21.65
2022-11-16T07:06:11.119Z,26.13
2022-11-16T07:08:38.548Z,26.02
2022-11-16T07:11:07.550Z,24.88
2022-11-16T07:13:36.243Z,25.50
2022-11-16T07:16:08.579Z,28.23
2022-11-16T07:18:37.643Z,28.45
2022-11-16T07:21:08.659Z,24.02
2022-11-16T07:23:36.520Z,24.52
2022-11-16T07:26:05.809Z,23.95
2022-11-16T07:28:33.589Z,23.25
2022-11-16T07:31:06.422Z,25.10
2022-11-16T07:33:34.024Z,27.05
2022-11-16T07:36:10.403Z,24.67
2022-11-16T07:38:37.398Z,27.13
2022-11-16T07:41:11.232Z,24.30
2022-11-16T07:43:38.075Z,27.20
2022-11-16T07:46:45.959Z,26.35
2022-11-16T07:49:00.407Z,25.20
2022-11-16T07:51:27.264Z,24.67
2022-11-16T07:53:55.902Z,23.15
2022-11-16T07:56:22.985Z,23.20
2022-11-16T07:58:49.767Z,31.33
2022-11-16T08:01:18.578Z,23.20
2022-11-16T08:03:46.313Z,27.05
2022-11-16T08:06:26.751Z,20.15
2022-11-16T08:08:57.975Z,24.50
2022-11-16T08:11:26.135Z,25.52
2022-11-16T08:13:53.038Z,23.58
2022-11-16T08:16:22.298Z,23.48
2022-11-16T08:18:49.193Z,25.83
2022-11-16T08:21:17.873Z,27.50
2022-11-16T08:23:45.254Z,23.23
2022-11-16T08:26:18.775Z,25.75
2022-11-16T08:28:48.056Z,27.27
2022-11-16T08:31:21.530Z,21.48
2022-11-16T08:33:48.304Z,24.65
2022-11-16T08:36:17.643Z,26.92
2022-11-16T08:38:49.734Z,26.67
2022-11-16T08:41:17.855Z,24.48
2022-11-16T08:43:46.989Z,25.52
2022-11-16T08:46:14.085Z,23.92
2022-11-16T08:48:41.263Z,28.25
2022-11-16T08:51:20.590Z,26.13
2022-11-16T08:53:49.308Z,25.92
2022-11-16T08:56:18.402Z,24.95
2022-11-16T08:58:51.374Z,26.27
2022-11-16T09:01:23.981Z,28.00
2022-11-16T09:03:52.185Z,25.95
2022-11-16T09:06:19.216Z,26.02
2022-11-16T09:08:46.891Z,27.50
2022-11-16T09:11:18.316Z,25.40
2022-11-16T09:13:47.834Z,25.80
2022-11-16T09:16:16.564Z,27.23
2022-11-16T09:18:45.548Z,26.90
2022-11-16T09:21:16.116Z,25.85
2022-11-16T09:23:42.862Z,26.48
2022-11-16T09:26:09.659Z,25.92
2022-11-16T09:28:36.749Z,26.45
2022-11-16T09:31:05.889Z,27.27
2022-11-16T09:33:34.307Z,29.73
2022-11-16T09:36:07.841Z,30.42
2022-11-16T09:42:15.728Z,28.52
2022-11-16T09:45:04.554Z,28.15
2022-11-16T09:47:40.840Z,28.70
2022-11-16T09:50:39.289Z,28.00
2022-11-16T09:53:53.028Z,27.48
2022-11-16T09:56:23.968Z,27.77
2022-11-16T09:59:02.873Z,28.40
2022-11-16T10:01:48.803Z,27.00
2022-11-16T10:04:29.133Z,26.50
2022-11-16T10:07:22.650Z,26.48
2022-11-16T10:09:49.863Z,32.50
2022-11-16T10:12:35.524Z,26.48
2022-11-16T10:15:06.611Z,24.98
2022-11-16T10:18:02.422Z,31.85
2022-11-16T10:21:12.883Z,27.52
2022-11-16T10:23:57.532Z,27.30
2022-11-16T10:29:35.112Z,25.38
2022-11-16T10:32:29.721Z,25.92
2022-11-16T10:35:09.091Z,27.70
2022-11-16T10:37:41.360Z,24.88
2022-11-16T10:40:23.145Z,27.15
2022-11-16T10:43:00.382Z,29.45
2022-11-16T10:45:45.992Z,26.83
2022-11-16T10:48:58.413Z,26.65
2022-11-16T10:51:25.209Z,26.50
2022-11-16T10:53:53.090Z,27.58
2022-11-16T10:56:28.751Z,26.98
2022-11-16T10:59:02.172Z,27.13
2022-11-16T11:01:37.658Z,23.40
2022-11-16T11:04:18.564Z,29.98
2022-11-16T11:06:48.887Z,28.88
2022-11-16T11:09:28.738Z,24.38
2022-11-16T11:12:22.629Z,27.50
2022-11-16T11:15:26.335Z,26.98
2022-11-16T11:18:15.498Z,29.38
2022-11-16T11:20:46.900Z,30.17
2022-11-16T11:23:22.134Z,31.90
2022-11-16T11:25:57.787Z,28.83
2022-11-16T11:28:31.661Z,29.65
2022-11-16T11:31:25.953Z,26.17
2022-11-16T11:33:57.713Z,30.48
2022-11-16T11:36:34.088Z,27.60
2022-11-16T11:39:21.101Z,31.23
2022-11-16T11:42:19.627Z,29.45
2022-11-16T11:44:57.520Z,27.50
2022-11-16T11:48:05.104Z,28.13
2022-11-16T11:50:44.785Z,31.60
2022-11-16T11:53:38.948Z,28.08
2022-11-16T11:56:06.633Z,26.63
2022-11-16T11:58:37.342Z,30.38
2022-11-16T12:01:25.639Z,25.30
2022-11-16T12:04:22.145Z,24.77
2022-11-16T12:07:03.617Z,26.77
2022-11-16T12:09:53.199Z,23.15
2022-11-16T12:12:56.701Z,21.83
2022-11-16T12:15:35.731Z,26.60
2022-11-16T12:18:14.157Z,23.98
2022-11-16T12:21:00.102Z,23.52
2022-11-16T12:24:03.919Z,24.58
2022-11-16T12:27:00.439Z,22.23
2022-11-16T12:29:40.438Z,23.67
2022-11-16T12:33:02.057Z,22.80
2022-11-16T12:36:36.387Z,23.33
2022-11-16T12:39:28.908Z,23.95
2022-11-16T12:42:34.741Z,24.08
2022-11-16T12:45:34.037Z,22.27
2022-11-16T12:48:31.995Z,26.17
2022-11-16T12:51:11.600Z,25.45
2022-11-16T12:54:06.161Z,23.42
2022-11-16T12:56:48.667Z,21.38
2022-11-16T12:59:49.045Z,26.55
2022-11-16T13:03:16.763Z,23.85
2022-11-16T13:05:53.770Z,25.10
2022-11-16T13:08:49.206Z,21.45
2022-11-16T13:11:21.907Z,24.55
2022-11-16T13:13:56.062Z,27.52
2022-11-16T13:16:24.700Z,24.38
2022-11-16T13:18:53.919Z,23.50
2022-11-16T13:21:47.904Z,21.92
2022-11-16T13:24:54.619Z,22.93
2022-11-16T13:27:49.871Z,20.17
2022-11-16T13:30:26.013Z,20.98
2022-11-16T13:33:13.809Z,23.23
2022-11-16T13:35:40.560Z,22.27
2022-11-16T13:38:13.724Z,23.30
2022-11-16T13:40:41.256Z,24.75
2022-11-16T13:43:10.934Z,22.90
2022-11-16T13:45:49.520Z,24.00
2022-11-16T13:48:21.557Z,24.08
2022-11-16T13:50:56.039Z,23.35
2022-11-16T13:56:15.937Z,23.02
2022-11-16T13:59:00.929Z,23.27
2022-11-16T14:02:28.376Z,25.10
2022-11-16T14:05:01.974Z,21.55
2022-11-16T14:07:46.371Z,26.35
2022-11-16T14:10:33.262Z,23.35
2022-11-16T14:13:05.128Z,23.40
2022-11-16T14:15:34.032Z,25.30
2022-11-16T14:18:32.117Z,22.70
2022-11-16T14:21:08.442Z,22.05
2022-11-16T14:24:02.851Z,21.15
2022-11-16T14:27:09.963Z,13.07
2022-11-16T14:30:09.932Z,20.88
2022-11-16T14:32:45.961Z,21.80
2022-11-16T14:35:40.257Z,21.33
2022-11-16T14:38:21.927Z,19.83
2022-11-16T14:40:57.783Z,21.73
2022-11-16T14:43:54.869Z,21.58
2022-11-16T14:46:35.656Z,21.67
2022-11-16T14:49:03.032Z,20.70
2022-11-16T14:51:34.964Z,20.27
2022-11-16T14:54:39.112Z,19.38
2022-11-16T14:57:13.628Z,21.20
2022-11-16T14:59:40.378Z,21.98
2022-11-16T15:02:27.160Z,22.33
2022-11-16T15:04:54.664Z,20.00
2022-11-16T15:07:26.248Z,20.70
2022-11-16T15:09:56.585Z,20.20
2022-11-16T15:12:42.245Z,20.45
2022-11-16T15:15:11.762Z,23.00
2022-11-16T15:17:42.162Z,23.60
2022-11-16T15:20:22.105Z,21.20
2022-11-16T15:22:55.329Z,25.73
2022-11-16T15:25:30.499Z,21.85
2022-11-16T15:28:20.026Z,23.60
2022-11-16T15:30:51.054Z,25.15
2022-11-16T15:33:33.571Z,31.15
2022-11-16T15:36:00.650Z,25.27
2022-11-16T15:38:32.769Z,24.85
2022-11-16T15:41:04.841Z,31.10
2022-11-16T15:43:45.211Z,28.48
2022-11-16T15:46:17.760Z,25.88
2022-11-16T15:48:45.534Z,27.77
2022-11-16T15:51:24.260Z,27.83
2022-11-16T15:53:54.361Z,22.40
2022-11-16T15:56:27.082Z,27.27
2022-11-16T15:59:02.466Z,25.42
2022-11-16T16:01:30.424Z,24.23
2022-11-16T16:04:05.017Z,27.05
2022-11-16T16:06:53.228Z,24.98
2022-11-16T16:09:39.680Z,21.88
2022-11-16T16:12:23.604Z,26.50
2022-11-16T16:14:52.375Z,19.70
2022-11-16T16:17:30.565Z,22.92
2022-11-16T16:20:04.047Z,49.33
2022-11-16T16:22:34.527Z,104.40
2022-11-16T16:25:01.962Z,86.50
2022-11-16T16:27:31.620Z,42.10
2022-11-16T16:30:05.352Z,34.28
2022-11-16T16:32:37.722Z,22.88
2022-11-16T16:35:08.424Z,21.50
2022-11-16T16:37:35.988Z,17.40
2022-11-16T16:40:03.480Z,17.33
2022-11-16T16:42:30.287Z,17.55
2022-11-16T16:44:59.929Z,16.60
2022-11-16T16:47:26.706Z,17.90
2022-11-16T16:49:53.604Z,17.40
2022-11-16T16:52:20.405Z,19.38
2022-11-16T16:54:47.207Z,17.65
2022-11-16T16:57:15.774Z,18.52
2022-11-16T16:59:45.287Z,18.08
2022-11-16T17:02:14.896Z,16.33
2022-11-16T17:04:43.870Z,13.65
2022-11-16T17:07:10.766Z,15.02
2022-11-16T17:09:37.543Z,13.32
2022-11-16T17:12:04.554Z,14.00
2022-11-16T17:14:31.327Z,14.57
2022-11-16T17:16:58.136Z,13.95
2022-11-16T17:19:25.039Z,17.33
2022-11-16T17:21:52.340Z,15.43
2022-11-16T17:24:19.303Z,14.93
2022-11-16T17:26:48.583Z,14.65
2022-11-16T17:29:15.474Z,14.73
2022-11-16T17:31:44.070Z,15.65
2022-11-16T17:34:13.699Z,15.02
2022-11-16T17:36:41.938Z,12.68
2022-11-16T17:39:09.000Z,10.77
2022-11-16T17:41:35.906Z,13.23
2022-11-16T17:44:03.701Z,13.07
2022-11-16T17:46:30.473Z,8.85
2022-11-16T17:48:57.310Z,11.15
2022-11-16T17:51:25.227Z,12.32
2022-11-16T17:53:52.510Z,10.15
2022-11-16T17:56:23.200Z,10.93
2022-11-16T17:58:51.530Z,11.63
2022-11-16T18:01:19.198Z,8.65
2022-11-16T18:03:46.076Z,9.48
2022-11-16T18:06:19.463Z,10.88
2022-11-16T18:08:46.693Z,9.47
2022-11-16T18:11:19.917Z,9.15
2022-11-16T18:13:47.635Z,10.07
2022-11-16T18:16:17.783Z,7.10
2022-11-16T18:18:46.721Z,9.32
2022-11-16T18:21:20.466Z,10.13
2022-11-16T18:26:17.668Z,5.85
2022-11-16T18:28:48.667Z,7.82
2022-11-16T18:31:18.114Z,9.93
2022-11-16T18:33:45.307Z,6.70
2022-11-16T18:36:12.872Z,8.27
2022-11-16T18:38:39.697Z,7.40
2022-11-16T18:41:16.616Z,8.18
2022-11-16T18:43:59.675Z,9.38
2022-11-16T18:46:29.398Z,9.98
2022-11-16T18:48:57.088Z,7.35
2022-11-16T18:51:26.950Z,8.63
2022-11-16T18:53:54.112Z,9.05
2022-11-16T18:56:21.095Z,11.30
2022-11-16T18:58:51.000Z,7.60
2022-11-16T19:01:25.506Z,7.95
2022-11-16T19:03:54.649Z,10.18
2022-11-16T19:06:23.025Z,8.65
2022-11-16T19:09:06.187Z,9.85
2022-11-16T19:11:32.967Z,8.65
2022-11-16T19:14:07.582Z,7.88
2022-11-16T19:16:34.589Z,7.25
2022-11-16T19:19:01.502Z,7.05
2022-11-16T19:21:28.624Z,6.72
2022-11-16T19:23:57.021Z,6.80
2022-11-16T19:26:27.121Z,6.28
2022-11-16T19:28:54.611Z,7.20
2022-11-16T19:31:28.735Z,6.07
2022-11-16T19:34:15.837Z,7.55
2022-11-16T19:36:42.581Z,5.47
2022-11-16T19:39:09.390Z,7.00
2022-11-16T19:41:36.213Z,6.50
2022-11-16T19:44:03.142Z,4.80
2022-11-16T19:46:33.026Z,4.95
2022-11-16T19:49:00.312Z,4.90
2022-11-16T19:51:33.301Z,5.78
2022-11-16T19:54:01.413Z,4.45
2022-11-16T19:56:29.107Z,4.25
2022-11-16T19:58:55.879Z,3.75
2022-11-16T20:01:27.699Z,4.68
2022-11-16T20:03:57.563Z,4.72
2022-11-16T20:06:28.990Z,3.72
2022-11-16T20:09:00.389Z,4.80
2022-11-16T20:11:33.983Z,5.75
2022-11-16T20:14:02.328Z,2.45
2022-11-16T20:16:38.439Z,4.80
2022-11-16T20:19:08.461Z,2.80
2022-11-16T20:21:41.213Z,4.45
2022-11-16T20:24:14.651Z,3.75
2022-11-16T20:26:45.033Z,3.20
2022-11-16T20:29:13.774Z,3.50
2022-11-16T20:31:42.756Z,4.63
2022-11-16T20:34:14.109Z,4.50
2022-11-16T20:36:43.684Z,3.42
2022-11-16T20:39:17.110Z,3.83
2022-11-16T20:41:44.358Z,3.50
2022-11-16T20:44:19.408Z,3.42
2022-11-16T20:46:46.208Z,4.00
2022-11-16T20:49:13.089Z,5.68
2022-11-16T20:51:40.388Z,4.95
2022-11-16T20:54:07.313Z,3.92
2022-11-16T20:56:34.308Z,6.47
2022-11-16T20:59:01.958Z,3.42
2022-11-16T21:01:31.379Z,3.45
2022-11-16T21:04:01.547Z,3.50
2022-11-16T21:06:28.666Z,4.07
2022-11-16T21:08:56.208Z,3.22
2022-11-16T21:11:30.384Z,2.95
2022-11-16T21:14:16.100Z,3.85
2022-11-16T21:16:43.388Z,4.03
2022-11-16T21:19:11.032Z,3.22
2022-11-16T21:21:40.331Z,3.58
2022-11-16T21:24:08.981Z,3.55
2022-11-16T21:26:37.143Z,3.65
2022-11-16T21:29:04.552Z,3.45
2022-11-16T21:31:36.390Z,3.80
2022-11-16T21:34:03.637Z,3.38
2022-11-16T21:36:32.104Z,5.85
2022-11-16T21:38:59.657Z,3.53
2022-11-16T21:41:26.893Z,3.85
2022-11-16T21:43:53.926Z,3.25
2022-11-16T21:46:26.100Z,3.17
2022-11-16T21:48:55.361Z,3.88
2022-11-16T21:51:25.190Z,3.58
2022-11-16T21:53:52.536Z,3.22
2022-11-16T21:56:22.782Z,3.75
2022-11-16T21:58:52.578Z,3.75
2022-11-16T22:01:20.222Z,4.18
2022-11-16T22:03:48.361Z,2.83
2022-11-16T22:06:35.206Z,2.70
2022-11-16T22:09:02.517Z,2.63
2022-11-16T22:11:29.311Z,3.15
2022-11-16T22:13:56.086Z,3.33
2022-11-16T22:16:23.358Z,3.15
2022-11-16T22:18:50.451Z,3.15
2022-11-16T22:21:17.413Z,3.03
2022-11-16T22:23:44.233Z,2.72
2022-11-16T22:26:13.020Z,3.92
2022-11-16T22:28:40.306Z,4.22
2022-11-16T22:31:13.237Z,2.60
2022-11-16T22:33:40.633Z,3.28
2022-11-16T22:36:09.474Z,3.33
2022-11-16T22:38:36.624Z,3.70
2022-11-16T22:41:03.599Z,2.88
2022-11-16T22:43:31.786Z,3.72
2022-11-16T22:46:05.069Z,3.75
2022-11-16T22:48:38.356Z,3.83
2022-11-16T22:51:17.952Z,3.38
2022-11-16T22:53:44.749Z,3.15
2022-11-16T22:56:11.700Z,5.07
2022-11-16T22:58:39.124Z,4.10
2022-11-16T23:01:08.220Z,3.08
2022-11-16T23:03:36.154Z,3.40
2022-11-16T23:06:04.179Z,3.10
2022-11-16T23:08:31.693Z,3.28
2022-11-16T23:11:28.661Z,3.75
2022-11-16T23:14:14.257Z,3.30
2022-11-16T23:16:42.215Z,3.40
2022-11-16T23:19:29.897Z,3.95
2022-11-16T23:22:16.027Z,3.90
2022-11-16T23:25:02.213Z,3.88
2022-11-16T23:27:56.984Z,4.85
2022-11-16T23:30:24.410Z,3.75
2022-11-16T23:32:51.645Z,3.85
2022-11-16T23:35:18.804Z,4.72
2022-11-16T23:38:04.176Z,4.57
2022-11-16T23:40:36.056Z,6.07
2022-11-16T23:43:39.031Z,4.60
2022-11-16T23:46:05.901Z,4.20
2022-11-16T23:48:32.663Z,4.22
2022-11-16T23:50:59.421Z,4.55
2022-11-16T23:53:26.199Z,4.75
2022-11-16T23:55:52.971Z,4.38
2022-11-16T23:58:19.768Z,4.57
